OOMS/MCT METAR and TAF weather

Enter ICAO airport designator
Station Type Date Time Source
OOMS METAR 2022/01/26 06:50 UTC NOAA

OOMS 260650Z 30003KT 230V010 CAVOK 23/14 Q1019 NOSIG


Station Type Date Time Source
OOMS Decoded METAR 2022/01/26 06:50 UTC NOAA

Seeb, International Airport, Oman (OOMS) 23-35N 058-17E 17M
Jan 26, 2022 - 01:50 AM EST / 2022.01.26 0650 UTC
Wind: from the WNW (300 degrees) at 3 MPH (3 KT) (direction variable):0
Visibility: greater than 7 mile(s):0
Temperature: 73 F (23 C)
Dew Point: 57 F (14 C)
Relative Humidity: 56%
Pressure (altimeter): 30.09 in. Hg (1019 hPa)
ob: OOMS 260650Z 30003KT 230V010 CAVOK 23/14 Q1019 NOSIG
cycle: 7

Station Type Date Time Source
OOMS TAF 2022/01/26 06:06 UTC NOAA

TAF TAF OOMS 260500Z 2606/2712 04010KT 8000 NSC
BECMG 2616/2618 22008KT
BECMG 2706/2708 05012KT

Example: see airport list